Weather observations for the past three days for
Richard I. Bong Airport
Metric (Imperial)
Date Time (cdt) Wind (kph) Vis. (km) Weather Sky Cond. Temperature (ºC) Relative Humidity Wind Chill (°C) Heat Index (°C) Pressure Precipitation (cm)
Air Dwpt 6 hour altimeter (cm) sea level (mb) 1 hr 3 hr 6 hr
Max. Min.
10 10:55 N 17 G 28 16.09 Overcast BKN048 OVC055 7.4 -3.9 45% 5 76.53 0.0
10 10:35 NW 15 16.09 Overcast OVC045 7.1 -3.3 48% 5 76.53 0.0
10 10:15 N 17 G 26 16.09 Overcast SCT036 OVC045 7 -2.8 50% 4 76.5 0.0
10 09:55 NW 13 16.09 Overcast BKN036 OVC045 6.4 -2.8 52% 4 76.5 0.0
10 09:35 NW 19 16.09 Mostly Cloudy BKN034 6.9 -2.5 52% 4 76.5 0.0
10 09:15 NW 22 G 30 16.09 Mostly Cloudy BKN034 7.7 -2 51% 5 76.48 0.0
10 08:55 NW 17 G 26 16.09 Fair CLR 6.2 -2 56% 3 76.48 0.0
10 08:35 NW 15 16.09 Fair CLR 6 -1.9 57% 3 76.45 0.0
10 08:15 NW 24 16.09 Fair CLR 5.3 -2.3 58% 1 76.45 0.0
10 07:55 NW 24 16.09 Fair CLR 5.2 -2.1 60% 1 76.43 0.0
10 07:35 NW 17 G 28 16.09 Fair CLR 4.8 -2.1 61% 2 76.4 0.0
10 07:15 NW 19 G 28 16.09 Fair CLR 4.5 -2.1 63% 1 76.4 0.0
10 06:55 NW 15 16.09 Fair CLR 4.1 -1.7 4.6 1.8 66% 1 76.38 0.0
10 06:35 NW 15 16.09 Fair CLR 3.5 -1.6 70% 0 76.35 0.0
10 06:15 NW 13 16.09 Fair CLR 2.7 -2 72% -0 76.33 0.0
10 05:55 W 11 16.09 Fair CLR 2.4 -2.2 72% -0 76.3 0.0
10 05:35 W 9 16.09 Fair CLR 1.9 -2.6 72% -1 76.28 0.0
10 05:15 W 11 16.09 Fair CLR 3.3 -2.3 67% 1 76.25 0.0
10 04:55 W 13 16.09 Fair CLR 3.2 -2.5 67% 0 76.23 0.0
10 04:35 W 11 16.09 Fair CLR 3.6 -2.5 65% 1 76.23 0.0
10 04:15 W 11 16.09 Fair CLR 3.5 -2.6 65% 1 76.2 0.0
10 03:55 W 11 16.09 Fair CLR 3.7 -2.5 64% 1 76.17 0.0
10 03:35 W 11 16.09 Fair CLR 4 -2.5 63% 2 76.17 0.0
10 03:15 NW 11 16.09 Partly Cloudy SCT110 4.3 -2.5 62% 2 76.15 0.0
10 02:50 W 9 16.09 Overcast OVC110 4.1 -3 60% 2 76.15 0.0
10 02:35 W 9 16.09 Overcast OVC110 4 -3.1 60% 2 76.12 0.0
10 02:15 W 9 16.09 Overcast SCT050 OVC120 4.5 -3.2 58% 3 76.12 0.0
10 01:55 W 9 16.09 Overcast OVC120 4.2 -3.2 59% 2 76.1 0.0
10 01:35 W 6 16.09 Overcast SCT065 SCT095 OVC120 4.5 -3.2 58% 76.1 0.0
10 01:15 W 6 16.09 Overcast BKN065 BKN075 OVC120 4.1 -3.1 60% 76.1 0.0
10 00:55 W 6 16.09 Overcast BKN065 BKN075 OVC120 4.7 -3 11.3 2.9 58% 76.1 0.0
10 00:35 W 6 16.09 Overcast BKN065 BKN085 OVC100 4.1 -3.2 59% 76.1 0.0
10 00:15 W 7 16.09 Mostly Cloudy SCT065 BKN110 4.1 -3.5 58% 3 76.07 0.0
09 23:55 W 6 16.09 Partly Cloudy SCT110 3.7 -4.2 57% 76.07 0.0
09 23:35 W 6 16.09 Partly Cloudy SCT090 SCT110 3.6 -4.3 57% 76.05 0.0
09 23:15 W 6 16.09 Mostly Cloudy BKN110 3.6 -4.4 56% 76.05 0.0
09 22:55 Calm 16.09 Overcast OVC110 4.9 -4.9 49% 76.05 0.0
09 22:35 W 7 16.09 Mostly Cloudy BKN110 5.3 -5.1 47% 4 76.05 0.0
09 22:15 NW 6 16.09 Partly Cloudy SCT110 5.5 -5.3 46% 76.05 0.0
09 21:55 NW 9 16.09 Fair CLR 6 -5.5 44% 4 76.02 0.0
09 21:35 NW 11 16.09 Fair CLR 6.6 -5.5 42% 5 76.02 0.0
09 21:15 NW 15 16.09 Partly Cloudy SCT090 8.3 -5.5 37% 6 76 0.0
09 20:55 NW 17 G 28 16.09 Mostly Cloudy SCT070 BKN090 9.1 -5.3 36% 7 75.97 0.0
09 20:35 NW 13 G 26 16.09 Overcast OVC090 9.4 -5.4 35% 8 75.95 0.0
09 20:15 NW 20 16.09 Overcast OVC090 9.8 -5.6 34% 7 75.9 0.0
09 19:55 NW 13 16.09 Overcast OVC090 10.3 -5.7 32% 75.87 0.0
09 19:35 NW 19 G 35 16.09 Mostly Cloudy BKN090 10.5 -6.1 31% 75.87 0.0
09 19:15 NW 20 G 26 16.09 Partly Cloudy SCT090 11.1 -6.3 29% 75.84 0.0
09 18:55 NW 22 G 35 16.09 Partly Cloudy SCT080 11.1 -6.2 14.6 11.1 29% 75.82 0.0
09 18:35 NW 24 G 33 16.09 Mostly Cloudy BKN080 BKN090 12.5 -5.7 28% 75.79 0.0
09 18:15 NW 28 G 43 16.09 Overcast OVC080 12.5 -5.8 28% 75.77 0.0
09 17:55 NW 22 G 37 16.09 Mostly Cloudy BKN090 12.9 -6.3 26% 75.74 0.0
09 17:35 NW 22 G 33 16.09 Mostly Cloudy BKN090 12 -6.1 28% 75.72 0.0
09 17:15 NW 28 G 41 16.09 Overcast OVC090 12.5 -6 27% 75.72 0.0
09 16:55 NW 19 G 33 16.09 Overcast OVC090 12.5 -5.6 28% 75.69 0.0
09 16:35 NW 26 G 33 16.09 Mostly Cloudy SCT080 BKN090 12.2 -6.2 27% 75.69 0.0
09 16:15 NW 19 G 35 16.09 Overcast OVC085 12.8 -5.9 27% 75.67 0.0
09 15:55 NW 28 G 41 16.09 Overcast OVC075 13.7 -5.4 26% 75.67 0.0
09 15:35 NW 24 G 43 16.09 Overcast OVC080 12.6 -5.6 28% 75.67 0.0
09 15:15 NW 19 G 43 16.09 Overcast OVC080 12.2 -5.8 28% 75.67 0.0
09 14:55 W 24 G 35 16.09 Mostly Cloudy BKN080 12.3 -5.6 28% 75.67 0.0
09 14:35 NW 22 G 39 16.09 Mostly Cloudy BKN070 11.7 -5.8 29% 75.64 0.0
09 14:15 NW 30 G 37 16.09 Overcast OVC070 12 -5.5 29% 75.64 0.0
09 13:55 NW 31 G 41 16.09 Overcast OVC070 12.4 -5.4 29% 75.64 0.0
09 13:35 NW 24 G 33 16.09 Overcast OVC070 11.2 -5.5 31% 75.62 0.0
09 13:15 NW 26 G 37 16.09 Overcast OVC060 11.9 -4.9 31% 75.62 0.0
09 12:35 NW 30 G 44 16.09 Partly Cloudy SCT060 11.6 -4.7 32% 75.59 0.0
09 12:15 NW 24 G 35 16.09 Mostly Cloudy BKN060 12.4 -4.3 31% 75.59 0.0
09 11:55 NW 26 G 35 16.09 Mostly Cloudy BKN060 11.5 -4.8 32% 75.57 0.0
09 11:35 NW 33 G 44 16.09 Mostly Cloudy and Breezy BKN060 10.6 -4.5 35% 75.51 0.0
09 11:15 N 24 G 46 16.09 Mostly Cloudy BKN060 11.4 -4.3 33% 75.51 0.0
09 10:55 NW 31 G 43 16.09 Overcast OVC060 10.6 -4.1 36% 75.49 0.0
09 10:35 N 17 G 35 16.09 Mostly Cloudy BKN060 11.3 -4 34% 75.46 0.0
09 10:15 N 24 G 39 16.09 Fair CLR 10.3 -4.4 36% 75.46 0.0
09 09:55 NW 26 G 41 16.09 Fair CLR 10.5 -4.4 35% 75.44 0.0
09 09:35 NW 28 G 39 16.09 Fair CLR 10.2 -4.7 35% 75.44 0.0
09 09:15 NW 22 G 39 16.09 Fair CLR 10.1 -5.4 33% 75.41 0.0
09 08:55 NW 24 G 30 16.09 Fair CLR 10 -5.6 33% 7 75.39 0.0
09 08:10 NW 19 G 30 16.09 Mostly Cloudy BKN100 9.2 -6.1 34% 7 75.34 0.0
09 07:55 NW 19 16.09 Overcast OVC100 8.1 -6.2 36% 5 75.34 0.0
09 07:30 NW 17 16.09 Overcast OVC100 8 -6 37% 6 75.31 0.0
09 07:15 NW 17 16.09 Overcast OVC100 8 -6 37% 6 75.29 0.0
09 06:55 NW 17 16.09 Overcast OVC100 8 -6.3 10.1 7.7 36% 6 75.26 0.0
09 06:35 NW 19 G 31 16.09 Overcast OVC085 8.5 -6.6 34% 6 75.23 0.0
09 06:15 W 11 16.09 Overcast SCT050 SCT065 OVC075 7.7 -5 41% 6 75.21 0.0
09 05:55 W 11 16.09 Light Drizzle SCT050 SCT065 OVC075 8 -4.9 40% 6 75.18 0.0
09 05:35 NW 9 16.09 Overcast OVC075 8.7 -6 35% 7 75.16 0.0
09 05:15 NW 13 16.09 Overcast OVC075 8.7 -5.2 37% 7 75.16 0.0
09 04:35 NW 15 16.09 Light Rain OVC075 9.5 -3.9 39% 8 75.13 0.0
09 04:15 NW 13 16.09 Overcast OVC075 9.5 -2.7 43% 8 75.13 0.0
09 03:55 NW 9 16.09 Overcast BKN075 OVC085 9.5 -2.8 42% 8 75.11 0.0
09 03:35 W 9 16.09 Overcast BKN075 OVC090 9.6 -3.1 41% 9 75.11 0.0
09 03:15 W 7 16.09 Overcast SCT075 OVC090 9.5 -3.1 41% 9 75.08 0.0
09 02:55 W 9 16.09 Overcast OVC090 9.7 -3.2 40% 9 75.08 0.0
09 02:35 W 7 16.09 Overcast OVC090 9.8 -3.2 40% 9 75.08 0.0
09 02:15 W 9 16.09 Mostly Cloudy SCT075 BKN090 BKN120 9.1 -2.7 44% 8 75.11 0.0
09 01:55 W 9 16.09 Overcast SCT075 BKN100 OVC120 9 -2.6 44% 8 75.11 0.0
09 01:35 NW 11 16.09 Overcast BKN100 OVC120 9.3 -3 42% 8 75.13 0.0
09 01:15 W 9 16.09 Overcast BKN095 OVC120 10 -2.7 41% 9 75.11 0.0
09 00:55 W 9 16.09 Partly Cloudy SCT120 9.7 -2.7 17.9 8.9 42% 9 75.11 0.0
09 00:35 W 9 16.09 Fair CLR 9.2 -2.1 45% 8 75.11 0.0
09 00:15 W 7 16.09 Fair CLR 9.1 -2.2 45% 8 75.08 0.0
08 23:55 W 7 16.09 Fair CLR 10.2 -2.6 41% 75.08 0.0
08 23:35 W 11 16.09 Fair CLR 9.6 -1.8 45% 8 75.11 0.0
08 23:15 W 9 16.09 Fair CLR 9.3 -2.5 44% 8 75.11 0.0
08 22:55 NW 11 16.09 Fair CLR 10 -2.5 42% 9 75.11 0.0
08 22:35 W 7 16.09 Fair CLR 10.9 -2.4 40% 75.08 0.0
08 22:15 NW 9 16.09 Fair CLR 12.9 -2.5 34% 75.08 0.0
08 21:55 NW 20 G 30 16.09 Partly Cloudy SCT090 13.8 -2.5 33% 75.06 0.0
08 21:35 NW 17 16.09 Overcast OVC090 14.5 -2.7 31% 75.06 0.0
08 21:15 NW 15 16.09 Overcast OVC090 13.8 -2.3 33% 75.03 0.0
08 20:55 W 7 16.09 Overcast OVC100 13.2 -3.5 31% 75.01 0.0
08 20:35 NW 7 16.09 Mostly Cloudy BKN100 14.6 -3.6 28% 74.98 0.0
08 20:15 NW 11 16.09 Partly Cloudy SCT100 15.6 -4.1 26% 74.98 0.0
08 19:55 W 11 16.09 Mostly Cloudy BKN110 16.2 -4.5 24% 74.98 0.0
08 19:35 W 9 G 17 16.09 Mostly Cloudy BKN110 17.3 -4.3 23% 74.96 0.0
08 19:15 W 11 16.09 Overcast OVC100 17.7 -4.1 22% 74.98 0.0
08 18:55 W 15 16.09 Overcast OVC110 17.8 -4.2 19.8 15.8 22% 74.98 0.0
08 18:35 W 13 16.09 Overcast OVC100 17.8 -4.4 22% 75.01 0.0
08 18:15 SW 19 16.09 Overcast OVC100 18 -4.2 22% 75.01 0.0
08 17:55 W 24 G 41 16.09 Overcast OVC100 17.6 -4.5 22% 75.03 0.0
08 17:35 W 17 G 31 16.09 Overcast OVC100 17.9 -4.8 21% 75.03 0.0
08 17:15 SW 24 G 37 16.09 Mostly Cloudy BKN100 18.2 -4.5 21% 75.03 0.0
08 16:55 W 26 16.09 Mostly Cloudy BKN100 18.7 -4.4 21% 75.06 0.0
08 16:35 W 30 G 35 16.09 Mostly Cloudy BKN100 19.2 -4.3 20% 75.06 0.0
08 16:15 SW 20 G 43 16.09 Partly Cloudy SCT100 18.8 -4.9 20% 75.08 0.0
08 15:55 SW 20 G 31 16.09 Mostly Cloudy BKN100 19.4 -4.7 19% 75.08 0.0
08 15:35 SW 19 G 33 16.09 Mostly Cloudy BKN095 19.1 -4.8 19% 75.11 0.0
08 15:15 W 20 G 28 16.09 Mostly Cloudy BKN095 18.6 -4.2 21% 75.16 0.0
08 14:55 SW 11 16.09 Partly Cloudy SCT095 19.8 -4.2 19% 75.16 0.0
08 14:35 W 19 G 28 16.09 Partly Cloudy SCT095 18.1 -5 20% 75.18 0.0
08 14:15 SW 15 16.09 Mostly Cloudy BKN095 17.4 -5.2 21% 75.23 0.0
08 13:35 SW 9 16.09 Partly Cloudy SCT095 17.5 -5.2 21% 75.26 0.0
08 13:15 SW 17 16.09 Fair CLR 16 -5.6 22% 75.29 0.0
08 12:55 W 6 16.09 Fair CLR 16.2 -6 17.3 0 21% 75.34 0.0
08 12:35 W 20 G 28 16.09 Fair CLR 16.4 -5.4 22% 75.34 0.0
08 12:15 Calm 16.09 Fair CLR 16.9 -5.4 21% 75.39 0.0
08 11:55 S 6 16.09 Fair CLR 16.2 -4.9 23% 75.41 0.0
08 11:35 SW 9 16.09 Fair CLR 15.2 -4.4 26% 75.41 0.0
08 11:15 W 9 16.09 Fair CLR 15.4 -4.8 25% 75.44 0.0
08 10:55 W 9 16.09 Fair CLR 15.1 -4.7 25% 75.44 0.0
08 10:35 Calm 16.09 Fair CLR 14.1 -5 26% 75.46 0.0
08 10:15 W 6 16.09 Fair CLR 12.7 -4.6 30% 75.49 0.0
08 09:55 Calm 16.09 Fair CLR 11.6 -3.8 34% 75.49 0.0
08 09:35 Calm 16.09 Fair CLR 10.6 -3.2 38% 75.51 0.0
08 09:15 Calm 16.09 Partly Cloudy SCT120 9.5 -3.5 40% 75.54 0.0
08 08:55 SW 7 16.09 Partly Cloudy SCT120 8.7 -3.5 42% 8 75.54 0.0
08 08:35 SW 7 16.09 Partly Cloudy SCT120 7.4 -3.8 45% 6 75.54 0.0
08 08:15 SW 6 16.09 Fair CLR 5.9 -3.7 51% 75.57 0.0
08 07:55 SW 6 16.09 Fair CLR 5 -3.4 55% 75.57 0.0
08 07:35 Calm 16.09 Fair CLR 3.8 -3.2 61% 75.57 0.0
08 07:15 Calm 16.09 Fair CLR 0.7 -2.4 80% 75.54 0.0
08 06:55 Calm 16.09 Fair CLR 0 -3.1 0 -4.2 80% 75.54 0.0
08 06:35 S 6 16.09 Fair CLR -1.9 -4.3 84% 75.54 0.0
08 06:15 Calm 16.09 Fair CLR -3.1 -5.3 85% 75.54 0.0
08 05:55 SW 6 16.09 Fair CLR -3.5 -6.1 82% 75.54 0.0
08 05:35 Calm 16.09 Fair CLR -2.8 -5.1 84% 75.54 0.0
08 05:15 Calm 16.09 Fair CLR -3.1 -5.4 84% 75.57 0.0
08 04:55 Calm 16.09 Fair CLR -2.3 -5.5 79% 75.57 0.0
08 04:35 Calm 16.09 Fair CLR -2.3 -5 82% 75.57 0.0
08 04:15 Calm 16.09 Fair CLR -2.4 -5 83% 75.59 0.0
08 03:55 S 6 16.09 Fair CLR -2.6 -4.6 86% 75.59 0.0
08 03:35 S 7 16.09 Fair CLR -3 -4.5 90% -6 75.59 0.0
08 03:15 Calm 16.09 Fair CLR -3 -4.5 90% 75.62 0.0
08 02:55 Calm 16.09 Fair CLR -3.6 -5.2 89% 75.62 0.0
08 02:35 Calm 16.09 Fair CLR -1.9 -3.8 87% 75.62 0.0
08 02:15 Calm 16.09 Fair CLR -2.9 -4.3 90% 75.64 0.0
08 01:55 S 6 16.09 Fair CLR -2.4 -3.8 90% 75.64 0.0
08 01:35 Calm 16.09 Fair CLR -2 -4 86% 75.67 0.0
08 01:15 Calm 16.09 Fair CLR -1.8 -4.2 84% 75.67 0.0
08 00:55 Calm 16.09 Fair CLR -1.3 -4.4 11.9 -1.3 80% 75.67 0.0
08 00:35 Calm 16.09 Fair CLR -0.3 -4.2 75% 75.67 0.0
08 00:15 Calm 16.09 Fair CLR -1.2 -4.4 79% 75.67 0.0
07 23:55 Calm 16.09 Fair CLR -1.3 -4.5 79% 75.67 0.0
07 23:35 Calm 16.09 Fair CLR -0.1 -4.8 71% 75.69 0.0
07 23:15 Calm 16.09 Fair CLR 0.1 -4.2 73% 75.69 0.0
07 22:55 Calm 16.09 Fair CLR 1.5 -4.2 66% 75.69 0.0
07 22:35 Calm 16.09 Fair CLR 1.6 -4 67% 75.69 0.0
07 22:15 Calm 16.09 Fair CLR 1.7 -4.1 66% 75.69 0.0
07 21:55 Calm 16.09 Fair CLR 2 -4.9 61% 75.67 0.0
07 21:35 Calm 16.09 Fair CLR 3.9 -5.6 50% 75.67 0.0
07 21:15 Calm 16.09 Fair CLR 4.6 -5.7 48% 75.67 0.0
07 20:55 N 6 16.09 Fair CLR 8.3 -6.7 34% 75.64 0.0
07 20:35 Calm 16.09 Partly Cloudy SCT090 9 -6.2 34% 75.64 0.0
07 20:15 Calm 16.09 Overcast OVC090 10.7 -5.8 31% 75.62 0.0
07 19:55 Calm 16.09 Overcast OVC090 11.2 -5.5 31% 75.62 0.0
07 19:35 Calm 16.09 Overcast OVC090 11 -5.3 32% 75.62 0.0
07 19:15 Calm 16.09 Overcast OVC090 11.1 -5.2 32% 75.62 0.0
07 18:55 Calm 16.09 Mostly Cloudy BKN090 11.7 -4.4 12.4 9.7 32% 75.62 0.0
07 18:35 Calm 16.09 Overcast SCT070 BKN090 OVC100 11.6 -5.2 31% 75.62 0.0
07 18:15 SW 7 16.09 Overcast OVC080 11.1 -4.6 33% 75.62 0.0
07 17:55 W 11 16.09 Mostly Cloudy SCT070 BKN080 BKN100 11 -4.7 33% 75.64 0.0
07 17:35 NW 17 16.09 Mostly Cloudy SCT065 SCT080 BKN100 11.5 -3.9 34% 75.64 0.0
07 17:15 NW 9 16.09 Overcast BKN070 BKN075 OVC110 11 -3.2 37% 75.67 0.0
07 16:55 N 6 16.09 Overcast OVC065 9.7 -2.5 43% 75.67 0.0
07 16:35 W 13 G 30 16.09 Overcast SCT050 BKN075 OVC080 10.8 -4 35% 75.67 0.0
07 16:15 W 20 G 30 16.09 Overcast SCT075 BKN080 OVC095 11.1 -3.7 36% 75.67 0.0
07 15:55 SW 22 G 35 16.09 Mostly Cloudy SCT070 BKN090 11.4 -3.5 35% 75.67 0.0
07 15:35 W 17 16.09 Mostly Cloudy SCT075 BKN090 BKN110 11.2 -3.7 35% 75.67 0.0
07 15:15 NW 19 G 39 16.09 Mostly Cloudy SCT055 BKN070 BKN100 12.2 -3.2 34% 75.69 0.0
07 14:55 W 26 G 39 16.09 Overcast SCT047 SCT050 OVC070 11.2 -4.9 32% 75.69 0.0
07 14:35 W 28 G 39 16.09 Overcast SCT050 OVC060 11.1 -4.6 33% 75.72 0.0
07 14:15 W 17 16.09 Overcast BKN060 OVC080 11.1 -5.5 31% 75.69 0.0
07 13:55 W 24 G 39 16.09 Overcast OVC070 11.2 -5.4 31% 75.69 0.0
07 13:35 W 15 G 37 16.09 Overcast SCT040 BKN070 OVC090 10.1 -6 32% 75.72 0.0
07 13:15 SW 19 16.09 Overcast SCT039 BKN060 OVC090 10.8 -5.2 32% 75.72 0.0
07 12:55 W 19 16.09 Overcast SCT050 BKN070 OVC090 10.8 -5.6 12.1 1.2 31% 75.74 0.0
07 12:35 W 19 G 26 16.09 Overcast SCT044 BKN070 OVC090 10.2 -5 34% 75.77 0.0
07 12:15 W 19 G 33 16.09 Overcast SCT060 BKN075 OVC090 10.1 -5.3 34% 75.77 0.0
07 11:55 SW 17 G 33 16.09 Mostly Cloudy SCT060 BKN090 10.2 -4.7 35% 75.79 0.0
07 11:35 W 15 G 28 16.09 Mostly Cloudy SCT060 SCT075 BKN090 10.2 -5.2 34% 75.79 0.0
Date Time (cdt) Wind (kph) Vis. (km) Weather Sky Cond. Air Dwpt Max. Min. Relative Humidity Wind Chill (°C) Heat Index (°C) altimeter (cm) sea level (mb) 1 hr 3 hr 6 hr
6 hour
Temperature (ºC) Pressure Precipitation (cm)